sensor_id;sensor_type;location;lat;lon;timestamp;P1;durP1;ratioP1;P2;durP2;ratioP2
13943;SDS011;7044;53.286;8.534;2022-09-13T00:01:03;11.20;;;8.23;;
13943;SDS011;7044;53.286;8.534;2022-09-13T00:03:31;11.18;;;7.20;;
13943;SDS011;7044;53.286;8.534;2022-09-13T00:06:05;17.25;;;8.45;;
13943;SDS011;7044;53.286;8.534;2022-09-13T00:08:34;11.10;;;7.80;;
13943;SDS011;7044;53.286;8.534;2022-09-13T00:11:01;10.55;;;7.38;;
13943;SDS011;7044;53.286;8.534;2022-09-13T00:13:28;10.30;;;8.25;;
13943;SDS011;7044;53.286;8.534;2022-09-13T00:15:55;12.00;;;8.63;;
13943;SDS011;7044;53.286;8.534;2022-09-13T00:18:25;11.43;;;8.38;;
13943;SDS011;7044;53.286;8.534;2022-09-13T00:21:02;16.58;;;8.55;;
13943;SDS011;7044;53.286;8.534;2022-09-13T00:23:29;13.00;;;9.45;;
13943;SDS011;7044;53.286;8.534;2022-09-13T00:26:03;11.35;;;8.10;;
13943;SDS011;7044;53.286;8.534;2022-09-13T00:28:30;11.65;;;8.90;;
13943;SDS011;7044;53.286;8.534;2022-09-13T00:30:58;11.70;;;9.82;;
13943;SDS011;7044;53.286;8.534;2022-09-13T00:33:25;19.60;;;9.98;;
13943;SDS011;7044;53.286;8.534;2022-09-13T00:35:53;15.50;;;10.00;;
13943;SDS011;7044;53.286;8.534;2022-09-13T00:38:19;13.57;;;10.10;;
13943;SDS011;7044;53.286;8.534;2022-09-13T00:40:46;12.07;;;9.07;;
13943;SDS011;7044;53.286;8.534;2022-09-13T00:43:16;14.57;;;9.35;;
13943;SDS011;7044;53.286;8.534;2022-09-13T00:45:44;20.52;;;10.68;;
13943;SDS011;7044;53.286;8.534;2022-09-13T00:48:14;15.48;;;9.52;;
13943;SDS011;7044;53.286;8.534;2022-09-13T00:50:45;12.13;;;10.10;;
13943;SDS011;7044;53.286;8.534;2022-09-13T00:53:18;13.98;;;9.50;;
13943;SDS011;7044;53.286;8.534;2022-09-13T00:55:49;12.77;;;10.05;;
13943;SDS011;7044;53.286;8.534;2022-09-13T00:58:28;17.10;;;10.63;;
13943;SDS011;7044;53.286;8.534;2022-09-13T01:00:59;18.83;;;10.05;;
13943;SDS011;7044;53.286;8.534;2022-09-13T01:03:29;15.60;;;10.57;;
13943;SDS011;7044;53.286;8.534;2022-09-13T01:05:59;15.93;;;10.77;;
13943;SDS011;7044;53.286;8.534;2022-09-13T01:08:30;16.80;;;10.63;;
13943;SDS011;7044;53.286;8.534;2022-09-13T01:10:59;15.00;;;10.77;;
13943;SDS011;7044;53.286;8.534;2022-09-13T01:13:30;11.85;;;9.80;;
13943;SDS011;7044;53.286;8.534;2022-09-13T01:15:59;14.82;;;10.77;;
13943;SDS011;7044;53.286;8.534;2022-09-13T01:18:26;16.15;;;10.38;;
13943;SDS011;7044;53.286;8.534;2022-09-13T01:21:08;14.85;;;9.98;;
13943;SDS011;7044;53.286;8.534;2022-09-13T01:24:07;14.68;;;9.93;;
13943;SDS011;7044;53.286;8.534;2022-09-13T01:27:08;15.50;;;9.95;;
13943;SDS011;7044;53.286;8.534;2022-09-13T01:35:52;17.35;;;10.50;;
13943;SDS011;7044;53.286;8.534;2022-09-13T01:38:39;14.00;;;10.43;;
13943;SDS011;7044;53.286;8.534;2022-09-13T01:41:28;15.35;;;11.27;;
13943;SDS011;7044;53.286;8.534;2022-09-13T01:44:10;16.65;;;11.60;;
13943;SDS011;7044;53.286;8.534;2022-09-13T01:46:47;15.40;;;11.02;;
13943;SDS011;7044;53.286;8.534;2022-09-13T01:49:17;16.42;;;11.90;;
13943;SDS011;7044;53.286;8.534;2022-09-13T01:51:48;14.95;;;11.15;;
13943;SDS011;7044;53.286;8.534;2022-09-13T01:54:20;17.17;;;11.68;;
13943;SDS011;7044;53.286;8.534;2022-09-13T01:56:55;20.65;;;12.70;;
13943;SDS011;7044;53.286;8.534;2022-09-13T01:59:28;18.25;;;11.98;;
13943;SDS011;7044;53.286;8.534;2022-09-13T02:02:00;16.10;;;11.55;;
13943;SDS011;7044;53.286;8.534;2022-09-13T02:04:32;14.90;;;11.32;;
13943;SDS011;7044;53.286;8.534;2022-09-13T02:07:03;16.05;;;12.02;;
13943;SDS011;7044;53.286;8.534;2022-09-13T02:09:38;22.00;;;12.02;;
13943;SDS011;7044;53.286;8.534;2022-09-13T02:12:09;18.05;;;12.45;;
13943;SDS011;7044;53.286;8.534;2022-09-13T02:14:42;16.17;;;11.45;;
13943;SDS011;7044;53.286;8.534;2022-09-13T02:17:13;16.88;;;12.20;;
13943;SDS011;7044;53.286;8.534;2022-09-13T02:19:42;15.70;;;12.15;;
13943;SDS011;7044;53.286;8.534;2022-09-13T02:22:14;14.02;;;10.80;;
13943;SDS011;7044;53.286;8.534;2022-09-13T02:24:45;17.58;;;12.23;;
13943;SDS011;7044;53.286;8.534;2022-09-13T02:27:18;16.13;;;12.40;;
13943;SDS011;7044;53.286;8.534;2022-09-13T02:29:49;15.07;;;11.75;;
13943;SDS011;7044;53.286;8.534;2022-09-13T02:32:23;17.70;;;13.23;;
13943;SDS011;7044;53.286;8.534;2022-09-13T02:34:57;19.88;;;12.98;;
13943;SDS011;7044;53.286;8.534;2022-09-13T02:37:28;15.60;;;12.02;;
13943;SDS011;7044;53.286;8.534;2022-09-13T02:40:00;16.52;;;12.70;;
13943;SDS011;7044;53.286;8.534;2022-09-13T02:42:32;17.88;;;12.88;;
13943;SDS011;7044;53.286;8.534;2022-09-13T02:45:03;19.67;;;13.52;;
13943;SDS011;7044;53.286;8.534;2022-09-13T02:47:41;20.98;;;12.73;;
13943;SDS011;7044;53.286;8.534;2022-09-13T02:50:18;17.13;;;12.38;;
13943;SDS011;7044;53.286;8.534;2022-09-13T02:52:57;16.45;;;12.10;;
13943;SDS011;7044;53.286;8.534;2022-09-13T02:55:29;16.25;;;11.65;;
13943;SDS011;7044;53.286;8.534;2022-09-13T02:58:05;20.60;;;12.27;;
13943;SDS011;7044;53.286;8.534;2022-09-13T03:00:37;16.90;;;11.60;;
13943;SDS011;7044;53.286;8.534;2022-09-13T03:03:06;16.70;;;12.30;;
13943;SDS011;7044;53.286;8.534;2022-09-13T03:05:35;14.90;;;10.48;;
13943;SDS011;7044;53.286;8.534;2022-09-13T03:08:02;22.40;;;10.85;;
13943;SDS011;7044;53.286;8.534;2022-09-13T03:10:33;14.07;;;10.90;;
13943;SDS011;7044;53.286;8.534;2022-09-13T03:13:19;16.05;;;10.63;;
13943;SDS011;7044;53.286;8.534;2022-09-13T03:16:02;14.13;;;10.38;;
13943;SDS011;7044;53.286;8.534;2022-09-13T03:18:39;15.13;;;11.27;;
13943;SDS011;7044;53.286;8.534;2022-09-13T03:21:18;13.05;;;10.80;;
13943;SDS011;7044;53.286;8.534;2022-09-13T03:23:54;13.38;;;10.43;;
13943;SDS011;7044;53.286;8.534;2022-09-13T03:26:29;15.40;;;10.70;;
13943;SDS011;7044;53.286;8.534;2022-09-13T03:29:08;14.38;;;10.30;;
13943;SDS011;7044;53.286;8.534;2022-09-13T03:31:46;16.55;;;11.80;;
13943;SDS011;7044;53.286;8.534;2022-09-13T03:34:22;13.88;;;11.07;;
13943;SDS011;7044;53.286;8.534;2022-09-13T03:36:55;13.88;;;10.82;;
13943;SDS011;7044;53.286;8.534;2022-09-13T03:39:28;13.35;;;10.35;;
13943;SDS011;7044;53.286;8.534;2022-09-13T03:42:03;15.27;;;10.68;;
13943;SDS011;7044;53.286;8.534;2022-09-13T03:44:38;13.70;;;10.13;;
13943;SDS011;7044;53.286;8.534;2022-09-13T03:47:09;14.60;;;10.95;;
13943;SDS011;7044;53.286;8.534;2022-09-13T03:49:38;15.65;;;10.80;;
13943;SDS011;7044;53.286;8.534;2022-09-13T03:52:05;17.40;;;11.27;;
13943;SDS011;7044;53.286;8.534;2022-09-13T03:54:35;13.95;;;11.57;;
13943;SDS011;7044;53.286;8.534;2022-09-13T03:57:07;14.98;;;10.70;;
13943;SDS011;7044;53.286;8.534;2022-09-13T03:59:36;16.55;;;10.80;;
13943;SDS011;7044;53.286;8.534;2022-09-13T04:02:04;15.07;;;11.70;;
13943;SDS011;7044;53.286;8.534;2022-09-13T04:04:35;15.07;;;10.90;;
13943;SDS011;7044;53.286;8.534;2022-09-13T04:07:04;14.75;;;11.25;;
13943;SDS011;7044;53.286;8.534;2022-09-13T04:09:30;15.48;;;11.88;;
13943;SDS011;7044;53.286;8.534;2022-09-13T04:11:57;18.40;;;11.77;;
13943;SDS011;7044;53.286;8.534;2022-09-13T04:14:25;15.00;;;10.45;;
13943;SDS011;7044;53.286;8.534;2022-09-13T04:16:52;17.10;;;11.40;;
13943;SDS011;7044;53.286;8.534;2022-09-13T04:19:20;15.95;;;11.18;;
13943;SDS011;7044;53.286;8.534;2022-09-13T04:21:47;15.57;;;11.63;;
13943;SDS011;7044;53.286;8.534;2022-09-13T04:24:16;14.95;;;11.70;;
13943;SDS011;7044;53.286;8.534;2022-09-13T04:26:44;16.13;;;11.65;;
13943;SDS011;7044;53.286;8.534;2022-09-13T04:29:14;18.17;;;12.10;;
13943;SDS011;7044;53.286;8.534;2022-09-13T04:31:41;14.43;;;10.00;;
13943;SDS011;7044;53.286;8.534;2022-09-13T04:34:08;15.05;;;10.93;;
13943;SDS011;7044;53.286;8.534;2022-09-13T04:36:34;16.20;;;11.02;;
13943;SDS011;7044;53.286;8.534;2022-09-13T04:39:02;15.80;;;10.40;;
13943;SDS011;7044;53.286;8.534;2022-09-13T04:41:30;17.27;;;10.98;;
13943;SDS011;7044;53.286;8.534;2022-09-13T04:43:58;17.20;;;10.75;;
13943;SDS011;7044;53.286;8.534;2022-09-13T04:46:26;13.95;;;10.50;;
13943;SDS011;7044;53.286;8.534;2022-09-13T04:48:53;13.80;;;10.25;;
13943;SDS011;7044;53.286;8.534;2022-09-13T04:51:20;14.00;;;9.68;;
13943;SDS011;7044;53.286;8.534;2022-09-13T04:53:50;14.15;;;10.38;;
13943;SDS011;7044;53.286;8.534;2022-09-13T04:56:18;14.35;;;9.77;;
13943;SDS011;7044;53.286;8.534;2022-09-13T04:58:46;14.68;;;10.15;;
13943;SDS011;7044;53.286;8.534;2022-09-13T05:01:13;15.55;;;10.88;;
13943;SDS011;7044;53.286;8.534;2022-09-13T05:03:40;14.20;;;10.55;;
13943;SDS011;7044;53.286;8.534;2022-09-13T05:06:07;14.77;;;10.23;;
13943;SDS011;7044;53.286;8.534;2022-09-13T05:08:36;15.13;;;9.88;;
13943;SDS011;7044;53.286;8.534;2022-09-13T05:11:03;14.13;;;10.20;;
13943;SDS011;7044;53.286;8.534;2022-09-13T05:13:30;15.57;;;9.93;;
13943;SDS011;7044;53.286;8.534;2022-09-13T05:15:59;12.57;;;9.75;;
13943;SDS011;7044;53.286;8.534;2022-09-13T05:18:29;16.38;;;10.15;;
13943;SDS011;7044;53.286;8.534;2022-09-13T05:20:57;12.65;;;9.35;;
13943;SDS011;7044;53.286;8.534;2022-09-13T05:23:25;11.57;;;8.98;;
13943;SDS011;7044;53.286;8.534;2022-09-13T05:25:52;12.88;;;8.43;;
13943;SDS011;7044;53.286;8.534;2022-09-13T05:28:19;13.50;;;8.85;;
13943;SDS011;7044;53.286;8.534;2022-09-13T05:30:53;15.75;;;9.55;;
13943;SDS011;7044;53.286;8.534;2022-09-13T05:33:22;14.93;;;8.70;;
13943;SDS011;7044;53.286;8.534;2022-09-13T05:35:49;11.43;;;8.45;;
13943;SDS011;7044;53.286;8.534;2022-09-13T05:38:16;13.02;;;8.38;;
13943;SDS011;7044;53.286;8.534;2022-09-13T05:40:43;12.63;;;9.20;;
13943;SDS011;7044;53.286;8.534;2022-09-13T05:43:10;16.77;;;8.85;;
13943;SDS011;7044;53.286;8.534;2022-09-13T05:45:37;12.55;;;9.05;;
13943;SDS011;7044;53.286;8.534;2022-09-13T05:48:04;14.35;;;9.13;;
13943;SDS011;7044;53.286;8.534;2022-09-13T05:50:35;15.32;;;9.07;;
13943;SDS011;7044;53.286;8.534;2022-09-13T05:53:02;13.45;;;9.25;;
13943;SDS011;7044;53.286;8.534;2022-09-13T05:55:29;15.63;;;9.45;;
13943;SDS011;7044;53.286;8.534;2022-09-13T05:57:56;12.30;;;8.60;;
13943;SDS011;7044;53.286;8.534;2022-09-13T06:00:23;17.60;;;10.25;;
13943;SDS011;7044;53.286;8.534;2022-09-13T06:02:49;12.55;;;9.55;;
13943;SDS011;7044;53.286;8.534;2022-09-13T06:05:16;12.88;;;9.30;;
13943;SDS011;7044;53.286;8.534;2022-09-13T06:07:44;13.30;;;9.07;;
13943;SDS011;7044;53.286;8.534;2022-09-13T06:10:11;13.23;;;10.10;;
13943;SDS011;7044;53.286;8.534;2022-09-13T06:12:38;14.13;;;9.82;;
13943;SDS011;7044;53.286;8.534;2022-09-13T06:15:06;11.82;;;8.43;;
13943;SDS011;7044;53.286;8.534;2022-09-13T06:17:35;13.35;;;9.75;;
13943;SDS011;7044;53.286;8.534;2022-09-13T06:20:02;12.52;;;8.82;;
13943;SDS011;7044;53.286;8.534;2022-09-13T06:22:29;11.43;;;8.90;;
13943;SDS011;7044;53.286;8.534;2022-09-13T06:25:00;9.98;;;8.10;;
13943;SDS011;7044;53.286;8.534;2022-09-13T06:27:27;10.65;;;8.32;;
13943;SDS011;7044;53.286;8.534;2022-09-13T06:29:55;16.90;;;9.00;;
13943;SDS011;7044;53.286;8.534;2022-09-13T06:32:21;11.40;;;8.48;;
13943;SDS011;7044;53.286;8.534;2022-09-13T06:34:48;14.15;;;10.70;;
13943;SDS011;7044;53.286;8.534;2022-09-13T06:37:15;11.15;;;8.23;;
13943;SDS011;7044;53.286;8.534;2022-09-13T06:39:42;12.50;;;8.25;;
13943;SDS011;7044;53.286;8.534;2022-09-13T06:42:10;10.35;;;7.65;;
13943;SDS011;7044;53.286;8.534;2022-09-13T06:44:37;12.60;;;8.43;;
13943;SDS011;7044;53.286;8.534;2022-09-13T06:47:04;8.80;;;6.90;;
13943;SDS011;7044;53.286;8.534;2022-09-13T06:49:31;12.15;;;7.38;;
13943;SDS011;7044;53.286;8.534;2022-09-13T06:51:57;9.95;;;7.75;;
13943;SDS011;7044;53.286;8.534;2022-09-13T06:54:24;11.88;;;7.72;;
13943;SDS011;7044;53.286;8.534;2022-09-13T06:56:51;11.93;;;8.30;;
13943;SDS011;7044;53.286;8.534;2022-09-13T06:59:19;12.05;;;8.30;;
13943;SDS011;7044;53.286;8.534;2022-09-13T07:01:46;10.90;;;7.15;;
13943;SDS011;7044;53.286;8.534;2022-09-13T07:04:13;8.68;;;6.78;;
13943;SDS011;7044;53.286;8.534;2022-09-13T07:06:43;10.88;;;6.95;;
13943;SDS011;7044;53.286;8.534;2022-09-13T07:09:12;9.80;;;6.78;;
13943;SDS011;7044;53.286;8.534;2022-09-13T07:11:41;8.35;;;6.63;;
13943;SDS011;7044;53.286;8.534;2022-09-13T07:14:10;9.60;;;6.50;;
13943;SDS011;7044;53.286;8.534;2022-09-13T07:16:40;9.13;;;5.28;;
13943;SDS011;7044;53.286;8.534;2022-09-13T07:19:11;9.05;;;5.38;;
13943;SDS011;7044;53.286;8.534;2022-09-13T07:21:39;4.97;;;4.35;;
13943;SDS011;7044;53.286;8.534;2022-09-13T07:24:05;5.68;;;4.68;;
13943;SDS011;7044;53.286;8.534;2022-09-13T07:26:32;8.52;;;4.50;;
13943;SDS011;7044;53.286;8.534;2022-09-13T07:29:00;10.10;;;5.00;;
13943;SDS011;7044;53.286;8.534;2022-09-13T07:31:33;22.00;;;5.45;;
13943;SDS011;7044;53.286;8.534;2022-09-13T07:34:02;7.63;;;3.65;;
13943;SDS011;7044;53.286;8.534;2022-09-13T07:36:32;25.60;;;6.00;;
13943;SDS011;7044;53.286;8.534;2022-09-13T07:39:00;11.18;;;3.88;;
13943;SDS011;7044;53.286;8.534;2022-09-13T07:41:28;6.63;;;3.63;;
13943;SDS011;7044;53.286;8.534;2022-09-13T07:43:56;8.32;;;3.65;;
13943;SDS011;7044;53.286;8.534;2022-09-13T07:46:25;7.70;;;2.95;;
13943;SDS011;7044;53.286;8.534;2022-09-13T07:48:53;8.93;;;3.15;;
13943;SDS011;7044;53.286;8.534;2022-09-13T07:51:23;7.57;;;2.58;;
13943;SDS011;7044;53.286;8.534;2022-09-13T07:53:51;9.60;;;2.95;;
13943;SDS011;7044;53.286;8.534;2022-09-13T07:56:21;5.95;;;2.17;;
13943;SDS011;7044;53.286;8.534;2022-09-13T07:58:50;8.65;;;2.30;;
13943;SDS011;7044;53.286;8.534;2022-09-13T08:01:19;7.25;;;2.30;;
13943;SDS011;7044;53.286;8.534;2022-09-13T08:03:49;7.68;;;2.20;;
13943;SDS011;7044;53.286;8.534;2022-09-13T08:06:17;5.68;;;1.88;;
13943;SDS011;7044;53.286;8.534;2022-09-13T08:08:45;8.25;;;2.08;;
13943;SDS011;7044;53.286;8.534;2022-09-13T08:11:13;4.18;;;1.85;;
13943;SDS011;7044;53.286;8.534;2022-09-13T08:13:43;6.78;;;2.20;;
13943;SDS011;7044;53.286;8.534;2022-09-13T08:16:10;6.78;;;2.72;;
13943;SDS011;7044;53.286;8.534;2022-09-13T08:18:41;8.00;;;2.00;;
13943;SDS011;7044;53.286;8.534;2022-09-13T08:21:08;7.53;;;1.52;;
13943;SDS011;7044;53.286;8.534;2022-09-13T08:23:36;7.35;;;1.65;;
13943;SDS011;7044;53.286;8.534;2022-09-13T08:26:04;7.20;;;1.48;;
13943;SDS011;7044;53.286;8.534;2022-09-13T08:28:32;3.05;;;1.35;;
13943;SDS011;7044;53.286;8.534;2022-09-13T08:31:04;2.92;;;1.13;;
13943;SDS011;7044;53.286;8.534;2022-09-13T08:33:31;8.38;;;1.95;;
13943;SDS011;7044;53.286;8.534;2022-09-13T08:35:58;2.70;;;1.08;;
13943;SDS011;7044;53.286;8.534;2022-09-13T08:38:25;7.65;;;1.40;;
13943;SDS011;7044;53.286;8.534;2022-09-13T08:40:52;2.45;;;1.10;;
13943;SDS011;7044;53.286;8.534;2022-09-13T08:43:26;5.80;;;1.10;;
13943;SDS011;7044;53.286;8.534;2022-09-13T08:46:09;1.42;;;0.90;;
13943;SDS011;7044;53.286;8.534;2022-09-13T08:48:42;3.00;;;1.20;;
13943;SDS011;7044;53.286;8.534;2022-09-13T08:51:17;4.93;;;1.20;;
13943;SDS011;7044;53.286;8.534;2022-09-13T08:53:52;3.72;;;1.38;;
13943;SDS011;7044;53.286;8.534;2022-09-13T08:56:21;3.20;;;1.10;;
13943;SDS011;7044;53.286;8.534;2022-09-13T08:58:58;7.70;;;1.30;;
13943;SDS011;7044;53.286;8.534;2022-09-13T09:01:41;1.63;;;0.98;;
13943;SDS011;7044;53.286;8.534;2022-09-13T09:04:20;5.75;;;1.35;;
13943;SDS011;7044;53.286;8.534;2022-09-13T09:07:09;7.82;;;1.50;;
13943;SDS011;7044;53.286;8.534;2022-09-13T09:09:39;4.50;;;1.10;;
13943;SDS011;7044;53.286;8.534;2022-09-13T09:12:11;2.45;;;1.17;;
13943;SDS011;7044;53.286;8.534;2022-09-13T09:14:43;4.22;;;1.58;;
13943;SDS011;7044;53.286;8.534;2022-09-13T09:17:13;5.93;;;1.58;;
13943;SDS011;7044;53.286;8.534;2022-09-13T09:19:43;6.35;;;1.15;;
13943;SDS011;7044;53.286;8.534;2022-09-13T09:22:15;4.93;;;1.10;;
13943;SDS011;7044;53.286;8.534;2022-09-13T09:24:46;6.53;;;1.00;;
13943;SDS011;7044;53.286;8.534;2022-09-13T09:27:16;8.40;;;1.45;;
13943;SDS011;7044;53.286;8.534;2022-09-13T09:29:46;5.28;;;1.00;;
13943;SDS011;7044;53.286;8.534;2022-09-13T09:32:20;3.40;;;0.70;;
13943;SDS011;7044;53.286;8.534;2022-09-13T09:34:57;4.10;;;1.00;;
13943;SDS011;7044;53.286;8.534;2022-09-13T09:37:36;5.57;;;1.00;;
13943;SDS011;7044;53.286;8.534;2022-09-13T09:40:09;4.47;;;1.30;;
13943;SDS011;7044;53.286;8.534;2022-09-13T09:42:41;7.88;;;1.40;;
13943;SDS011;7044;53.286;8.534;2022-09-13T09:45:24;3.30;;;0.80;;
13943;SDS011;7044;53.286;8.534;2022-09-13T09:47:53;3.92;;;0.93;;
13943;SDS011;7044;53.286;8.534;2022-09-13T09:50:22;3.20;;;0.95;;
13943;SDS011;7044;53.286;8.534;2022-09-13T09:52:55;5.63;;;1.15;;
13943;SDS011;7044;53.286;8.534;2022-09-13T09:55:27;1.67;;;0.82;;
13943;SDS011;7044;53.286;8.534;2022-09-13T09:57:56;3.22;;;0.93;;
13943;SDS011;7044;53.286;8.534;2022-09-13T10:00:27;1.15;;;0.68;;
13943;SDS011;7044;53.286;8.534;2022-09-13T10:02:56;1.73;;;0.77;;
13943;SDS011;7044;53.286;8.534;2022-09-13T10:05:25;3.95;;;1.17;;
13943;SDS011;7044;53.286;8.534;2022-09-13T10:07:52;3.92;;;1.17;;
13943;SDS011;7044;53.286;8.534;2022-09-13T10:10:23;5.80;;;1.33;;
13943;SDS011;7044;53.286;8.534;2022-09-13T10:12:51;8.07;;;1.10;;
13943;SDS011;7044;53.286;8.534;2022-09-13T10:15:21;1.73;;;0.70;;
13943;SDS011;7044;53.286;8.534;2022-09-13T10:18:02;5.43;;;1.40;;
13943;SDS011;7044;53.286;8.534;2022-09-13T10:20:40;4.82;;;1.25;;
13943;SDS011;7044;53.286;8.534;2022-09-13T10:23:19;7.57;;;1.08;;
13943;SDS011;7044;53.286;8.534;2022-09-13T10:25:59;10.05;;;1.42;;
13943;SDS011;7044;53.286;8.534;2022-09-13T10:28:30;2.67;;;1.08;;
13943;SDS011;7044;53.286;8.534;2022-09-13T10:31:01;7.93;;;1.25;;
13943;SDS011;7044;53.286;8.534;2022-09-13T10:33:32;3.08;;;1.02;;
13943;SDS011;7044;53.286;8.534;2022-09-13T10:36:02;5.75;;;1.38;;
13943;SDS011;7044;53.286;8.534;2022-09-13T10:38:33;2.00;;;1.10;;
13943;SDS011;7044;53.286;8.534;2022-09-13T10:41:03;3.72;;;1.17;;
13943;SDS011;7044;53.286;8.534;2022-09-13T10:43:35;2.15;;;1.17;;
13943;SDS011;7044;53.286;8.534;2022-09-13T10:46:05;4.10;;;1.05;;
13943;SDS011;7044;53.286;8.534;2022-09-13T10:48:45;3.97;;;0.80;;
13943;SDS011;7044;53.286;8.534;2022-09-13T10:51:20;2.40;;;0.63;;
13943;SDS011;7044;53.286;8.534;2022-09-13T10:56:49;6.55;;;0.90;;
13943;SDS011;7044;53.286;8.534;2022-09-13T10:59:18;1.05;;;0.95;;
13943;SDS011;7044;53.286;8.534;2022-09-13T11:01:50;8.88;;;1.55;;
13943;SDS011;7044;53.286;8.534;2022-09-13T11:07:44;2.28;;;1.10;;
13943;SDS011;7044;53.286;8.534;2022-09-13T11:10:28;6.75;;;1.20;;
13943;SDS011;7044;53.286;8.534;2022-09-13T11:13:01;3.13;;;0.73;;
13943;SDS011;7044;53.286;8.534;2022-09-13T11:15:39;4.93;;;1.00;;
13943;SDS011;7044;53.286;8.534;2022-09-13T11:18:15;6.57;;;1.65;;
13943;SDS011;7044;53.286;8.534;2022-09-13T11:20:52;2.72;;;1.00;;
13943;SDS011;7044;53.286;8.534;2022-09-13T11:23:42;7.47;;;1.00;;
13943;SDS011;7044;53.286;8.534;2022-09-13T11:26:25;2.85;;;0.55;;
13943;SDS011;7044;53.286;8.534;2022-09-13T11:29:12;3.90;;;1.13;;
13943;SDS011;7044;53.286;8.534;2022-09-13T11:31:51;5.15;;;1.13;;
13943;SDS011;7044;53.286;8.534;2022-09-13T11:34:28;2.75;;;0.98;;
13943;SDS011;7044;53.286;8.534;2022-09-13T11:40:19;2.60;;;1.15;;
13943;SDS011;7044;53.286;8.534;2022-09-13T11:42:54;4.88;;;1.10;;
13943;SDS011;7044;53.286;8.534;2022-09-13T11:45:33;2.85;;;1.42;;
13943;SDS011;7044;53.286;8.534;2022-09-13T11:48:19;4.18;;;1.10;;
13943;SDS011;7044;53.286;8.534;2022-09-13T11:51:01;5.55;;;1.05;;
13943;SDS011;7044;53.286;8.534;2022-09-13T11:53:39;6.97;;;1.45;;
13943;SDS011;7044;53.286;8.534;2022-09-13T11:56:26;3.25;;;0.90;;
13943;SDS011;7044;53.286;8.534;2022-09-13T11:58:59;7.88;;;1.38;;
13943;SDS011;7044;53.286;8.534;2022-09-13T12:04:06;2.80;;;1.30;;
13943;SDS011;7044;53.286;8.534;2022-09-13T12:06:38;3.53;;;1.23;;
13943;SDS011;7044;53.286;8.534;2022-09-13T12:09:10;7.40;;;1.35;;
13943;SDS011;7044;53.286;8.534;2022-09-13T12:11:44;3.70;;;0.98;;
13943;SDS011;7044;53.286;8.534;2022-09-13T12:14:17;5.93;;;1.38;;
13943;SDS011;7044;53.286;8.534;2022-09-13T12:16:47;4.20;;;0.90;;
13943;SDS011;7044;53.286;8.534;2022-09-13T12:19:17;6.57;;;1.10;;
13943;SDS011;7044;53.286;8.534;2022-09-13T12:21:48;7.13;;;1.17;;
13943;SDS011;7044;53.286;8.534;2022-09-13T12:24:17;5.57;;;0.98;;
13943;SDS011;7044;53.286;8.534;2022-09-13T12:26:48;4.93;;;1.10;;
13943;SDS011;7044;53.286;8.534;2022-09-13T12:29:20;6.38;;;1.58;;
13943;SDS011;7044;53.286;8.534;2022-09-13T12:31:55;2.15;;;0.93;;
13943;SDS011;7044;53.286;8.534;2022-09-13T12:34:26;4.40;;;1.10;;
13943;SDS011;7044;53.286;8.534;2022-09-13T12:37:05;4.68;;;0.85;;
13943;SDS011;7044;53.286;8.534;2022-09-13T12:39:44;2.33;;;1.02;;
13943;SDS011;7044;53.286;8.534;2022-09-13T12:48:25;7.55;;;1.45;;
13943;SDS011;7044;53.286;8.534;2022-09-13T12:51:10;4.45;;;1.30;;
13943;SDS011;7044;53.286;8.534;2022-09-13T12:53:59;7.90;;;0.90;;
13943;SDS011;7044;53.286;8.534;2022-09-13T12:56:41;6.35;;;1.30;;
13943;SDS011;7044;53.286;8.534;2022-09-13T12:59:22;2.08;;;1.13;;
13943;SDS011;7044;53.286;8.534;2022-09-13T13:02:21;3.40;;;0.80;;
13943;SDS011;7044;53.286;8.534;2022-09-13T13:04:54;5.97;;;1.00;;
13943;SDS011;7044;53.286;8.534;2022-09-13T13:07:25;5.32;;;1.30;;
13943;SDS011;7044;53.286;8.534;2022-09-13T13:09:54;4.10;;;1.15;;
13943;SDS011;7044;53.286;8.534;2022-09-13T13:12:26;4.13;;;1.00;;
13943;SDS011;7044;53.286;8.534;2022-09-13T13:14:58;0.77;;;0.75;;
13943;SDS011;7044;53.286;8.534;2022-09-13T13:17:33;3.13;;;1.00;;
13943;SDS011;7044;53.286;8.534;2022-09-13T13:23:33;2.10;;;1.00;;
13943;SDS011;7044;53.286;8.534;2022-09-13T13:26:11;6.25;;;1.30;;
13943;SDS011;7044;53.286;8.534;2022-09-13T13:31:42;3.70;;;0.70;;
13943;SDS011;7044;53.286;8.534;2022-09-13T13:37:42;2.90;;;1.02;;
13943;SDS011;7044;53.286;8.534;2022-09-13T13:40:10;3.08;;;0.95;;
13943;SDS011;7044;53.286;8.534;2022-09-13T13:45:57;6.28;;;1.48;;
13943;SDS011;7044;53.286;8.534;2022-09-13T13:48:45;10.00;;;1.27;;
13943;SDS011;7044;53.286;8.534;2022-09-13T13:51:19;9.00;;;1.02;;
13943;SDS011;7044;53.286;8.534;2022-09-13T13:53:49;8.55;;;1.23;;
13943;SDS011;7044;53.286;8.534;2022-09-13T13:56:24;5.30;;;1.38;;
13943;SDS011;7044;53.286;8.534;2022-09-13T13:59:10;9.73;;;1.30;;
13943;SDS011;7044;53.286;8.534;2022-09-13T14:01:43;5.05;;;1.27;;
13943;SDS011;7044;53.286;8.534;2022-09-13T14:04:29;6.85;;;1.10;;
13943;SDS011;7044;53.286;8.534;2022-09-13T14:07:28;5.07;;;1.48;;
13943;SDS011;7044;53.286;8.534;2022-09-13T14:10:00;10.70;;;1.80;;
13943;SDS011;7044;53.286;8.534;2022-09-13T14:12:38;5.65;;;0.90;;
13943;SDS011;7044;53.286;8.534;2022-09-13T14:15:21;5.82;;;1.52;;
13943;SDS011;7044;53.286;8.534;2022-09-13T14:18:12;5.22;;;1.23;;
13943;SDS011;7044;53.286;8.534;2022-09-13T14:21:02;4.53;;;1.58;;
13943;SDS011;7044;53.286;8.534;2022-09-13T14:23:30;1.63;;;0.80;;
13943;SDS011;7044;53.286;8.534;2022-09-13T14:25:59;5.45;;;1.30;;
13943;SDS011;7044;53.286;8.534;2022-09-13T14:28:26;8.00;;;1.35;;
13943;SDS011;7044;53.286;8.534;2022-09-13T14:30:54;5.45;;;1.20;;
13943;SDS011;7044;53.286;8.534;2022-09-13T14:33:24;4.55;;;1.30;;
13943;SDS011;7044;53.286;8.534;2022-09-13T14:35:59;5.05;;;1.30;;
13943;SDS011;7044;53.286;8.534;2022-09-13T14:38:30;4.85;;;1.13;;
13943;SDS011;7044;53.286;8.534;2022-09-13T14:41:00;5.43;;;1.35;;
13943;SDS011;7044;53.286;8.534;2022-09-13T14:43:37;4.30;;;1.17;;
13943;SDS011;7044;53.286;8.534;2022-09-13T14:46:04;5.10;;;1.30;;
13943;SDS011;7044;53.286;8.534;2022-09-13T14:48:35;4.00;;;1.13;;
13943;SDS011;7044;53.286;8.534;2022-09-13T14:51:11;3.88;;;1.02;;
13943;SDS011;7044;53.286;8.534;2022-09-13T14:53:42;4.40;;;0.95;;
13943;SDS011;7044;53.286;8.534;2022-09-13T14:56:14;4.75;;;1.10;;
13943;SDS011;7044;53.286;8.534;2022-09-13T14:58:42;7.40;;;1.30;;
13943;SDS011;7044;53.286;8.534;2022-09-13T15:01:12;5.65;;;1.20;;
13943;SDS011;7044;53.286;8.534;2022-09-13T15:03:41;1.55;;;0.85;;
13943;SDS011;7044;53.286;8.534;2022-09-13T15:06:19;3.60;;;1.10;;
13943;SDS011;7044;53.286;8.534;2022-09-13T15:08:49;3.08;;;0.93;;
13943;SDS011;7044;53.286;8.534;2022-09-13T15:11:26;6.32;;;1.17;;
13943;SDS011;7044;53.286;8.534;2022-09-13T15:14:00;2.40;;;0.85;;
13943;SDS011;7044;53.286;8.534;2022-09-13T15:16:46;9.18;;;1.27;;
13943;SDS011;7044;53.286;8.534;2022-09-13T15:19:14;3.47;;;1.00;;
13943;SDS011;7044;53.286;8.534;2022-09-13T15:21:43;7.45;;;1.15;;
13943;SDS011;7044;53.286;8.534;2022-09-13T15:24:17;3.45;;;1.00;;
13943;SDS011;7044;53.286;8.534;2022-09-13T15:26:46;4.05;;;1.15;;
13943;SDS011;7044;53.286;8.534;2022-09-13T15:29:15;3.63;;;1.08;;
13943;SDS011;7044;53.286;8.534;2022-09-13T15:31:43;2.63;;;1.85;;
13943;SDS011;7044;53.286;8.534;2022-09-13T15:34:11;4.78;;;1.33;;
13943;SDS011;7044;53.286;8.534;2022-09-13T15:36:49;3.25;;;0.98;;
13943;SDS011;7044;53.286;8.534;2022-09-13T15:39:40;8.50;;;1.30;;
13943;SDS011;7044;53.286;8.534;2022-09-13T15:42:08;2.90;;;1.08;;
13943;SDS011;7044;53.286;8.534;2022-09-13T15:44:35;1.90;;;0.95;;
13943;SDS011;7044;53.286;8.534;2022-09-13T15:47:02;2.72;;;0.77;;
13943;SDS011;7044;53.286;8.534;2022-09-13T15:49:34;3.67;;;0.88;;
13943;SDS011;7044;53.286;8.534;2022-09-13T15:52:06;3.85;;;0.88;;
13943;SDS011;7044;53.286;8.534;2022-09-13T15:54:34;3.88;;;1.10;;
13943;SDS011;7044;53.286;8.534;2022-09-13T15:57:05;3.78;;;0.88;;